sensor_id;sensor_type;location;lat;lon;timestamp;temperature;humidity
68746;SHT31;73143;45.456;11.064;2024-03-17T00:00:41;15.15;69.62
68746;SHT31;73143;45.456;11.064;2024-03-17T00:03:17;15.12;69.56
68746;SHT31;73143;45.456;11.064;2024-03-17T00:05:57;15.09;69.33
68746;SHT31;73143;45.456;11.064;2024-03-17T00:08:34;15.02;69.10
68746;SHT31;73143;45.456;11.064;2024-03-17T00:11:10;14.98;68.91
68746;SHT31;73143;45.456;11.064;2024-03-17T00:13:45;14.94;68.51
68746;SHT31;73143;45.456;11.064;2024-03-17T00:16:21;14.87;68.29
68746;SHT31;73143;45.456;11.064;2024-03-17T00:18:59;14.79;68.17
68746;SHT31;73143;45.456;11.064;2024-03-17T00:21:35;14.72;68.24
68746;SHT31;73143;45.456;11.064;2024-03-17T00:24:10;14.69;68.01
68746;SHT31;73143;45.456;11.064;2024-03-17T00:26:50;14.64;67.87
68746;SHT31;73143;45.456;11.064;2024-03-17T00:29:25;14.60;67.79
68746;SHT31;73143;45.456;11.064;2024-03-17T00:32:01;14.58;67.76
68746;SHT31;73143;45.456;11.064;2024-03-17T00:34:40;14.55;67.68
68746;SHT31;73143;45.456;11.064;2024-03-17T00:37:15;14.51;67.70
68746;SHT31;73143;45.456;11.064;2024-03-17T00:39:54;14.48;67.66
68746;SHT31;73143;45.456;11.064;2024-03-17T00:42:29;14.43;67.71
68746;SHT31;73143;45.456;11.064;2024-03-17T00:45:05;14.38;67.65
68746;SHT31;73143;45.456;11.064;2024-03-17T00:47:43;14.36;67.72
68746;SHT31;73143;45.456;11.064;2024-03-17T00:50:18;14.35;67.69
68746;SHT31;73143;45.456;11.064;2024-03-17T00:52:54;14.33;67.69
68746;SHT31;73143;45.456;11.064;2024-03-17T00:55:32;14.32;67.70
68746;SHT31;73143;45.456;11.064;2024-03-17T00:58:08;14.27;67.70
68746;SHT31;73143;45.456;11.064;2024-03-17T01:00:45;14.23;67.80
68746;SHT31;73143;45.456;11.064;2024-03-17T01:03:22;14.23;67.86
68746;SHT31;73143;45.456;11.064;2024-03-17T01:05:58;14.20;67.81
68746;SHT31;73143;45.456;11.064;2024-03-17T01:08:37;14.15;67.84
68746;SHT31;73143;45.456;11.064;2024-03-17T01:11:15;14.09;67.90
68746;SHT31;73143;45.456;11.064;2024-03-17T01:13:51;14.03;67.98
68746;SHT31;73143;45.456;11.064;2024-03-17T01:16:27;13.99;68.17
68746;SHT31;73143;45.456;11.064;2024-03-17T01:19:02;13.97;68.28
68746;SHT31;73143;45.456;11.064;2024-03-17T01:21:38;13.94;68.37
68746;SHT31;73143;45.456;11.064;2024-03-17T01:24:14;13.94;68.40
68746;SHT31;73143;45.456;11.064;2024-03-17T01:26:51;13.94;68.42
68746;SHT31;73143;45.456;11.064;2024-03-17T01:29:27;13.94;68.48
68746;SHT31;73143;45.456;11.064;2024-03-17T01:32:05;13.95;68.52
68746;SHT31;73143;45.456;11.064;2024-03-17T01:34:42;13.96;68.53
68746;SHT31;73143;45.456;11.064;2024-03-17T01:37:19;13.98;68.51
68746;SHT31;73143;45.456;11.064;2024-03-17T01:39:54;13.96;68.52
68746;SHT31;73143;45.456;11.064;2024-03-17T01:42:30;13.96;68.58
68746;SHT31;73143;45.456;11.064;2024-03-17T01:45:20;13.94;68.66
68746;SHT31;73143;45.456;11.064;2024-03-17T01:48:08;13.92;68.70
68746;SHT31;73143;45.456;11.064;2024-03-17T01:50:49;13.92;68.63
68746;SHT31;73143;45.456;11.064;2024-03-17T01:53:29;13.92;68.54
68746;SHT31;73143;45.456;11.064;2024-03-17T01:56:06;13.94;68.42
68746;SHT31;73143;45.456;11.064;2024-03-17T01:58:44;13.94;68.37
68746;SHT31;73143;45.456;11.064;2024-03-17T02:01:19;13.90;68.44
68746;SHT31;73143;45.456;11.064;2024-03-17T02:03:55;13.87;68.57
68746;SHT31;73143;45.456;11.064;2024-03-17T02:06:32;13.84;68.72
68746;SHT31;73143;45.456;11.064;2024-03-17T02:09:10;13.83;68.96
68746;SHT31;73143;45.456;11.064;2024-03-17T02:11:48;13.81;69.05
68746;SHT31;73143;45.456;11.064;2024-03-17T02:14:23;13.78;69.14
68746;SHT31;73143;45.456;11.064;2024-03-17T02:17:00;13.76;69.19
68746;SHT31;73143;45.456;11.064;2024-03-17T02:19:39;13.75;69.22
68746;SHT31;73143;45.456;11.064;2024-03-17T02:22:15;13.72;69.20
68746;SHT31;73143;45.456;11.064;2024-03-17T02:24:52;13.73;69.16
68746;SHT31;73143;45.456;11.064;2024-03-17T02:27:30;13.70;69.17
68746;SHT31;73143;45.456;11.064;2024-03-17T02:30:08;13.68;69.28
68746;SHT31;73143;45.456;11.064;2024-03-17T02:32:45;13.65;69.37
68746;SHT31;73143;45.456;11.064;2024-03-17T02:35:27;13.65;69.46
68746;SHT31;73143;45.456;11.064;2024-03-17T02:38:04;13.65;69.56
68746;SHT31;73143;45.456;11.064;2024-03-17T02:40:44;13.65;69.59
68746;SHT31;73143;45.456;11.064;2024-03-17T02:43:20;13.64;69.54
68746;SHT31;73143;45.456;11.064;2024-03-17T02:45:56;13.63;69.53
68746;SHT31;73143;45.456;11.064;2024-03-17T02:48:35;13.63;69.59
68746;SHT31;73143;45.456;11.064;2024-03-17T02:51:13;13.61;69.58
68746;SHT31;73143;45.456;11.064;2024-03-17T02:53:50;13.60;69.52
68746;SHT31;73143;45.456;11.064;2024-03-17T02:56:30;13.60;69.39
68746;SHT31;73143;45.456;11.064;2024-03-17T02:59:05;13.58;69.31
68746;SHT31;73143;45.456;11.064;2024-03-17T03:01:41;13.56;69.39
68746;SHT31;73143;45.456;11.064;2024-03-17T03:04:17;13.53;69.32
68746;SHT31;73143;45.456;11.064;2024-03-17T03:06:53;13.51;69.33
68746;SHT31;73143;45.456;11.064;2024-03-17T03:09:29;13.50;69.30
68746;SHT31;73143;45.456;11.064;2024-03-17T03:12:09;13.51;69.23
68746;SHT31;73143;45.456;11.064;2024-03-17T03:14:44;13.51;69.04
68746;SHT31;73143;45.456;11.064;2024-03-17T03:17:21;13.52;68.93
68746;SHT31;73143;45.456;11.064;2024-03-17T03:19:57;13.51;68.89
68746;SHT31;73143;45.456;11.064;2024-03-17T03:22:33;13.49;68.87
68746;SHT31;73143;45.456;11.064;2024-03-17T03:25:11;13.46;68.90
68746;SHT31;73143;45.456;11.064;2024-03-17T03:27:48;13.43;68.90
68746;SHT31;73143;45.456;11.064;2024-03-17T03:30:26;13.44;68.91
68746;SHT31;73143;45.456;11.064;2024-03-17T03:33:01;13.44;68.82
68746;SHT31;73143;45.456;11.064;2024-03-17T03:35:38;13.42;68.77
68746;SHT31;73143;45.456;11.064;2024-03-17T03:38:17;13.40;68.70
68746;SHT31;73143;45.456;11.064;2024-03-17T03:40:53;13.38;68.79
68746;SHT31;73143;45.456;11.064;2024-03-17T03:43:29;13.37;68.80
68746;SHT31;73143;45.456;11.064;2024-03-17T03:46:06;13.37;68.78
68746;SHT31;73143;45.456;11.064;2024-03-17T03:48:41;13.36;68.80
68746;SHT31;73143;45.456;11.064;2024-03-17T03:51:21;13.36;68.78
68746;SHT31;73143;45.456;11.064;2024-03-17T03:53:57;13.37;68.70
68746;SHT31;73143;45.456;11.064;2024-03-17T03:56:35;13.37;68.74
68746;SHT31;73143;45.456;11.064;2024-03-17T03:59:11;13.38;68.69
68746;SHT31;73143;45.456;11.064;2024-03-17T04:01:48;13.35;68.66
68746;SHT31;73143;45.456;11.064;2024-03-17T04:04:27;13.32;68.73
68746;SHT31;73143;45.456;11.064;2024-03-17T04:07:05;13.26;68.88
68746;SHT31;73143;45.456;11.064;2024-03-17T04:09:41;13.18;69.17
68746;SHT31;73143;45.456;11.064;2024-03-17T04:12:17;13.12;69.69
68746;SHT31;73143;45.456;11.064;2024-03-17T04:14:52;13.09;69.71
68746;SHT31;73143;45.456;11.064;2024-03-17T04:17:31;13.09;69.51
68746;SHT31;73143;45.456;11.064;2024-03-17T04:20:09;13.10;69.49
68746;SHT31;73143;45.456;11.064;2024-03-17T04:22:47;13.09;69.40
68746;SHT31;73143;45.456;11.064;2024-03-17T04:25:23;13.08;69.40
68746;SHT31;73143;45.456;11.064;2024-03-17T04:27:59;13.08;69.47
68746;SHT31;73143;45.456;11.064;2024-03-17T04:30:35;13.05;69.52
68746;SHT31;73143;45.456;11.064;2024-03-17T04:33:11;13.03;69.61
68746;SHT31;73143;45.456;11.064;2024-03-17T04:35:47;13.02;69.67
68746;SHT31;73143;45.456;11.064;2024-03-17T04:38:22;13.01;69.70
68746;SHT31;73143;45.456;11.064;2024-03-17T04:40:58;13.02;69.70
68746;SHT31;73143;45.456;11.064;2024-03-17T04:43:38;13.01;69.69
68746;SHT31;73143;45.456;11.064;2024-03-17T04:46:14;13.02;69.70
68746;SHT31;73143;45.456;11.064;2024-03-17T04:48:50;12.99;69.79
68746;SHT31;73143;45.456;11.064;2024-03-17T04:51:26;12.97;69.79
68746;SHT31;73143;45.456;11.064;2024-03-17T04:54:03;12.96;69.79
68746;SHT31;73143;45.456;11.064;2024-03-17T04:56:40;12.92;69.88
68746;SHT31;73143;45.456;11.064;2024-03-17T04:59:16;12.93;69.83
68746;SHT31;73143;45.456;11.064;2024-03-17T05:01:51;12.94;69.75
68746;SHT31;73143;45.456;11.064;2024-03-17T05:04:28;12.95;69.80
68746;SHT31;73143;45.456;11.064;2024-03-17T05:07:06;12.96;69.74
68746;SHT31;73143;45.456;11.064;2024-03-17T05:09:43;12.97;69.73
68746;SHT31;73143;45.456;11.064;2024-03-17T05:12:18;12.98;69.70
68746;SHT31;73143;45.456;11.064;2024-03-17T05:14:54;12.99;69.72
68746;SHT31;73143;45.456;11.064;2024-03-17T05:17:30;13.02;69.73
68746;SHT31;73143;45.456;11.064;2024-03-17T05:20:07;13.04;69.79
68746;SHT31;73143;45.456;11.064;2024-03-17T05:22:47;13.05;69.98
68746;SHT31;73143;45.456;11.064;2024-03-17T05:25:26;13.01;70.33
68746;SHT31;73143;45.456;11.064;2024-03-17T05:28:05;12.96;70.70
68746;SHT31;73143;45.456;11.064;2024-03-17T05:30:42;12.94;70.90
68746;SHT31;73143;45.456;11.064;2024-03-17T05:33:19;12.93;70.99
68746;SHT31;73143;45.456;11.064;2024-03-17T05:35:57;12.92;71.37
68746;SHT31;73143;45.456;11.064;2024-03-17T05:38:35;12.91;71.81
68746;SHT31;73143;45.456;11.064;2024-03-17T05:41:15;12.92;71.74
68746;SHT31;73143;45.456;11.064;2024-03-17T05:43:54;12.95;71.58
68746;SHT31;73143;45.456;11.064;2024-03-17T05:46:32;12.99;71.32
68746;SHT31;73143;45.456;11.064;2024-03-17T05:49:10;13.02;70.69
68746;SHT31;73143;45.456;11.064;2024-03-17T05:51:49;13.04;70.23
68746;SHT31;73143;45.456;11.064;2024-03-17T05:54:24;13.05;70.05
68746;SHT31;73143;45.456;11.064;2024-03-17T05:57:00;13.07;70.00
68746;SHT31;73143;45.456;11.064;2024-03-17T05:59:40;13.12;69.95
68746;SHT31;73143;45.456;11.064;2024-03-17T06:02:17;13.14;70.00
68746;SHT31;73143;45.456;11.064;2024-03-17T06:04:54;13.17;69.90
68746;SHT31;73143;45.456;11.064;2024-03-17T06:07:32;13.21;69.73
68746;SHT31;73143;45.456;11.064;2024-03-17T06:10:09;13.26;69.67
68746;SHT31;73143;45.456;11.064;2024-03-17T06:12:52;13.30;69.46
68746;SHT31;73143;45.456;11.064;2024-03-17T06:15:28;13.32;69.41
68746;SHT31;73143;45.456;11.064;2024-03-17T06:18:05;13.37;69.30
68746;SHT31;73143;45.456;11.064;2024-03-17T06:20:42;13.41;69.15
68746;SHT31;73143;45.456;11.064;2024-03-17T06:23:20;13.45;69.05
68746;SHT31;73143;45.456;11.064;2024-03-17T06:25:57;13.51;69.00
68746;SHT31;73143;45.456;11.064;2024-03-17T06:28:34;13.52;68.84
68746;SHT31;73143;45.456;11.064;2024-03-17T06:31:11;13.55;68.76
68746;SHT31;73143;45.456;11.064;2024-03-17T06:33:47;13.56;68.67
68746;SHT31;73143;45.456;11.064;2024-03-17T06:36:23;13.58;68.69
68746;SHT31;73143;45.456;11.064;2024-03-17T06:39:00;13.60;68.72
68746;SHT31;73143;45.456;11.064;2024-03-17T06:41:36;13.64;69.18
68746;SHT31;73143;45.456;11.064;2024-03-17T06:44:11;13.70;69.66
68746;SHT31;73143;45.456;11.064;2024-03-17T06:46:48;13.74;69.82
68746;SHT31;73143;45.456;11.064;2024-03-17T06:49:27;13.80;69.53
68746;SHT31;73143;45.456;11.064;2024-03-17T06:52:04;13.90;69.14
68746;SHT31;73143;45.456;11.064;2024-03-17T06:54:41;13.98;68.83
68746;SHT31;73143;45.456;11.064;2024-03-17T06:57:22;14.09;68.59
68746;SHT31;73143;45.456;11.064;2024-03-17T06:59:58;14.18;68.32
68746;SHT31;73143;45.456;11.064;2024-03-17T07:02:35;14.28;68.17
68746;SHT31;73143;45.456;11.064;2024-03-17T07:05:14;14.40;68.02
68746;SHT31;73143;45.456;11.064;2024-03-17T07:07:50;14.52;67.81
68746;SHT31;73143;45.456;11.064;2024-03-17T07:10:28;14.60;67.58
68746;SHT31;73143;45.456;11.064;2024-03-17T07:13:05;14.65;67.43
68746;SHT31;73143;45.456;11.064;2024-03-17T07:15:40;14.69;67.42
68746;SHT31;73143;45.456;11.064;2024-03-17T07:18:23;14.74;70.11
68746;SHT31;73143;45.456;11.064;2024-03-17T07:21:02;14.76;71.38
68746;SHT31;73143;45.456;11.064;2024-03-17T07:23:39;14.79;71.74
68746;SHT31;73143;45.456;11.064;2024-03-17T07:26:14;14.79;72.34
68746;SHT31;73143;45.456;11.064;2024-03-17T07:28:51;14.79;72.36
68746;SHT31;73143;45.456;11.064;2024-03-17T07:31:26;14.81;72.62
68746;SHT31;73143;45.456;11.064;2024-03-17T07:34:02;14.81;72.81
68746;SHT31;73143;45.456;11.064;2024-03-17T07:36:39;14.80;73.08
68746;SHT31;73143;45.456;11.064;2024-03-17T07:39:17;14.87;73.17
68746;SHT31;73143;45.456;11.064;2024-03-17T07:41:54;15.00;72.66
68746;SHT31;73143;45.456;11.064;2024-03-17T07:44:31;15.14;72.24
68746;SHT31;73143;45.456;11.064;2024-03-17T07:47:07;15.27;71.93
68746;SHT31;73143;45.456;11.064;2024-03-17T07:49:48;15.41;71.48
68746;SHT31;73143;45.456;11.064;2024-03-17T07:52:24;15.55;70.87
68746;SHT31;73143;45.456;11.064;2024-03-17T07:54:59;15.65;70.28
68746;SHT31;73143;45.456;11.064;2024-03-17T07:57:38;15.74;69.84
68746;SHT31;73143;45.456;11.064;2024-03-17T08:00:14;15.85;69.45
68746;SHT31;73143;45.456;11.064;2024-03-17T08:02:52;15.91;69.31
68746;SHT31;73143;45.456;11.064;2024-03-17T08:05:29;15.97;69.25
68746;SHT31;73143;45.456;11.064;2024-03-17T08:08:06;16.01;68.98
68746;SHT31;73143;45.456;11.064;2024-03-17T08:10:43;16.04;68.62
68746;SHT31;73143;45.456;11.064;2024-03-17T08:13:19;16.04;68.81
68746;SHT31;73143;45.456;11.064;2024-03-17T08:15:59;16.06;69.16
68746;SHT31;73143;45.456;11.064;2024-03-17T08:18:37;16.08;69.00
68746;SHT31;73143;45.456;11.064;2024-03-17T08:21:15;16.11;68.94
68746;SHT31;73143;45.456;11.064;2024-03-17T08:23:51;16.15;68.90
68746;SHT31;73143;45.456;11.064;2024-03-17T08:26:29;16.18;68.92
68746;SHT31;73143;45.456;11.064;2024-03-17T08:29:06;16.22;68.79
68746;SHT31;73143;45.456;11.064;2024-03-17T08:31:42;16.24;68.58
68746;SHT31;73143;45.456;11.064;2024-03-17T08:34:20;16.27;68.48
68746;SHT31;73143;45.456;11.064;2024-03-17T08:36:56;16.31;68.54
68746;SHT31;73143;45.456;11.064;2024-03-17T08:39:31;16.36;68.50
68746;SHT31;73143;45.456;11.064;2024-03-17T08:42:08;16.43;68.50
68746;SHT31;73143;45.456;11.064;2024-03-17T08:44:44;16.52;68.43
68746;SHT31;73143;45.456;11.064;2024-03-17T08:47:21;16.57;68.16
68746;SHT31;73143;45.456;11.064;2024-03-17T08:49:56;16.60;67.73
68746;SHT31;73143;45.456;11.064;2024-03-17T08:52:33;16.62;67.80
68746;SHT31;73143;45.456;11.064;2024-03-17T08:55:09;16.67;68.08
68746;SHT31;73143;45.456;11.064;2024-03-17T08:57:46;16.72;67.98
68746;SHT31;73143;45.456;11.064;2024-03-17T09:00:23;16.76;67.60
68746;SHT31;73143;45.456;11.064;2024-03-17T09:02:59;16.80;67.73
68746;SHT31;73143;45.456;11.064;2024-03-17T09:05:36;16.83;67.71
68746;SHT31;73143;45.456;11.064;2024-03-17T09:08:16;16.86;67.64
68746;SHT31;73143;45.456;11.064;2024-03-17T09:10:53;16.86;67.52
68746;SHT31;73143;45.456;11.064;2024-03-17T09:13:29;16.89;67.56
68746;SHT31;73143;45.456;11.064;2024-03-17T09:16:06;16.92;67.49
68746;SHT31;73143;45.456;11.064;2024-03-17T09:18:43;16.96;67.20
68746;SHT31;73143;45.456;11.064;2024-03-17T09:21:19;17.00;66.90
68746;SHT31;73143;45.456;11.064;2024-03-17T09:23:55;17.01;66.77
68746;SHT31;73143;45.456;11.064;2024-03-17T09:26:32;17.05;66.78
68746;SHT31;73143;45.456;11.064;2024-03-17T09:29:09;17.09;66.76
68746;SHT31;73143;45.456;11.064;2024-03-17T09:31:45;17.13;66.70
68746;SHT31;73143;45.456;11.064;2024-03-17T09:34:22;17.17;66.73
68746;SHT31;73143;45.456;11.064;2024-03-17T09:36:59;17.21;66.68
68746;SHT31;73143;45.456;11.064;2024-03-17T09:39:36;17.24;66.26
68746;SHT31;73143;45.456;11.064;2024-03-17T09:42:15;17.26;66.06
68746;SHT31;73143;45.456;11.064;2024-03-17T09:44:55;17.30;65.91
68746;SHT31;73143;45.456;11.064;2024-03-17T09:47:30;17.36;66.07
68746;SHT31;73143;45.456;11.064;2024-03-17T09:50:08;17.42;65.93
68746;SHT31;73143;45.456;11.064;2024-03-17T09:52:48;17.50;65.87
68746;SHT31;73143;45.456;11.064;2024-03-17T09:55:25;17.58;65.77
68746;SHT31;73143;45.456;11.064;2024-03-17T09:58:03;17.67;65.71
68746;SHT31;73143;45.456;11.064;2024-03-17T10:00:47;17.76;65.54
68746;SHT31;73143;45.456;11.064;2024-03-17T10:06:20;17.95;64.24
68746;SHT31;73143;45.456;11.064;2024-03-17T10:08:57;18.05;63.67
68746;SHT31;73143;45.456;11.064;2024-03-17T10:11:38;18.16;63.31
68746;SHT31;73143;45.456;11.064;2024-03-17T10:14:16;18.27;62.43
68746;SHT31;73143;45.456;11.064;2024-03-17T10:16:52;18.38;61.78
68746;SHT31;73143;45.456;11.064;2024-03-17T10:19:29;18.47;61.64
68746;SHT31;73143;45.456;11.064;2024-03-17T10:22:11;18.56;61.37
68746;SHT31;73143;45.456;11.064;2024-03-17T10:24:48;18.65;60.96
68746;SHT31;73143;45.456;11.064;2024-03-17T10:27:34;18.74;60.75
68746;SHT31;73143;45.456;11.064;2024-03-17T10:30:18;18.82;60.33
68746;SHT31;73143;45.456;11.064;2024-03-17T10:32:55;18.88;59.67
68746;SHT31;73143;45.456;11.064;2024-03-17T10:35:33;18.93;59.56
68746;SHT31;73143;45.456;11.064;2024-03-17T10:38:10;19.00;59.37
68746;SHT31;73143;45.456;11.064;2024-03-17T10:40:49;19.08;59.12
68746;SHT31;73143;45.456;11.064;2024-03-17T10:43:25;19.13;59.15
68746;SHT31;73143;45.456;11.064;2024-03-17T10:46:02;19.17;59.12
68746;SHT31;73143;45.456;11.064;2024-03-17T10:48:42;19.18;59.20
68746;SHT31;73143;45.456;11.064;2024-03-17T10:51:19;19.19;58.97
68746;SHT31;73143;45.456;11.064;2024-03-17T10:53:55;19.20;58.68
68746;SHT31;73143;45.456;11.064;2024-03-17T10:56:32;19.23;58.56
68746;SHT31;73143;45.456;11.064;2024-03-17T10:59:09;19.27;57.92
68746;SHT31;73143;45.456;11.064;2024-03-17T11:01:50;19.32;57.65
68746;SHT31;73143;45.456;11.064;2024-03-17T11:04:29;19.39;57.17
68746;SHT31;73143;45.456;11.064;2024-03-17T11:07:06;19.46;57.18
68746;SHT31;73143;45.456;11.064;2024-03-17T11:09:51;19.53;56.76
68746;SHT31;73143;45.456;11.064;2024-03-17T11:12:42;19.57;56.79
68746;SHT31;73143;45.456;11.064;2024-03-17T11:18:37;19.65;55.83
68746;SHT31;73143;45.456;11.064;2024-03-17T11:21:20;19.71;56.36
68746;SHT31;73143;45.456;11.064;2024-03-17T11:24:00;19.75;56.18
68746;SHT31;73143;45.456;11.064;2024-03-17T11:26:51;19.76;56.01
68746;SHT31;73143;45.456;11.064;2024-03-17T11:29:27;19.76;56.36
68746;SHT31;73143;45.456;11.064;2024-03-17T11:32:08;19.77;56.14
68746;SHT31;73143;45.456;11.064;2024-03-17T11:35:15;19.83;56.24
68746;SHT31;73143;45.456;11.064;2024-03-17T11:37:56;19.92;55.52
68746;SHT31;73143;45.456;11.064;2024-03-17T11:40:33;19.95;55.06
68746;SHT31;73143;45.456;11.064;2024-03-17T11:43:08;20.00;54.96
68746;SHT31;73143;45.456;11.064;2024-03-17T11:45:56;20.03;54.67
68746;SHT31;73143;45.456;11.064;2024-03-17T11:48:34;20.00;55.05
68746;SHT31;73143;45.456;11.064;2024-03-17T11:51:11;19.95;55.22
68746;SHT31;73143;45.456;11.064;2024-03-17T11:53:47;19.97;55.26
68746;SHT31;73143;45.456;11.064;2024-03-17T11:56:35;20.01;54.63
68746;SHT31;73143;45.456;11.064;2024-03-17T11:59:13;20.02;53.99
68746;SHT31;73143;45.456;11.064;2024-03-17T12:01:49;20.04;53.57
68746;SHT31;73143;45.456;11.064;2024-03-17T12:04:24;20.03;54.14
68746;SHT31;73143;45.456;11.064;2024-03-17T12:07:01;20.05;54.46
68746;SHT31;73143;45.456;11.064;2024-03-17T12:09:44;20.09;54.88
68746;SHT31;73143;45.456;11.064;2024-03-17T12:12:23;20.10;54.97
68746;SHT31;73143;45.456;11.064;2024-03-17T12:15:11;20.15;55.18
68746;SHT31;73143;45.456;11.064;2024-03-17T12:17:56;20.17;54.81
68746;SHT31;73143;45.456;11.064;2024-03-17T12:20:32;20.17;54.71
68746;SHT31;73143;45.456;11.064;2024-03-17T12:23:11;20.16;55.09
68746;SHT31;73143;45.456;11.064;2024-03-17T12:25:50;20.13;54.90
68746;SHT31;73143;45.456;11.064;2024-03-17T12:28:28;20.04;54.76
68746;SHT31;73143;45.456;11.064;2024-03-17T12:31:04;19.95;54.98
68746;SHT31;73143;45.456;11.064;2024-03-17T12:33:40;19.86;55.54
68746;SHT31;73143;45.456;11.064;2024-03-17T12:36:16;19.84;55.69
68746;SHT31;73143;45.456;11.064;2024-03-17T12:38:52;19.82;55.49
68746;SHT31;73143;45.456;11.064;2024-03-17T12:41:54;19.79;55.63
68746;SHT31;73143;45.456;11.064;2024-03-17T12:44:38;19.80;55.47
68746;SHT31;73143;45.456;11.064;2024-03-17T12:47:22;19.81;55.31
68746;SHT31;73143;45.456;11.064;2024-03-17T12:49:59;19.84;55.28
68746;SHT31;73143;45.456;11.064;2024-03-17T12:52:52;19.88;54.88
68746;SHT31;73143;45.456;11.064;2024-03-17T12:55:29;19.93;55.21
68746;SHT31;73143;45.456;11.064;2024-03-17T12:58:22;19.97;54.92
68746;SHT31;73143;45.456;11.064;2024-03-17T13:01:16;20.01;54.90
68746;SHT31;73143;45.456;11.064;2024-03-17T13:03:53;20.07;54.88
68746;SHT31;73143;45.456;11.064;2024-03-17T13:06:38;20.17;54.73
68746;SHT31;73143;45.456;11.064;2024-03-17T13:09:14;20.26;54.18
68746;SHT31;73143;45.456;11.064;2024-03-17T13:11:51;20.39;54.02
68746;SHT31;73143;45.456;11.064;2024-03-17T13:14:27;20.49;53.90
68746;SHT31;73143;45.456;11.064;2024-03-17T13:17:04;20.56;53.78
68746;SHT31;73143;45.456;11.064;2024-03-17T13:19:47;20.65;53.66
68746;SHT31;73143;45.456;11.064;2024-03-17T13:22:23;20.70;53.05
68746;SHT31;73143;45.456;11.064;2024-03-17T13:24:59;20.68;52.99
68746;SHT31;73143;45.456;11.064;2024-03-17T13:27:36;20.66;53.08
68746;SHT31;73143;45.456;11.064;2024-03-17T13:30:14;20.67;53.05
68746;SHT31;73143;45.456;11.064;2024-03-17T13:32:56;20.52;53.33
68746;SHT31;73143;45.456;11.064;2024-03-17T13:35:39;20.48;53.84
68746;SHT31;73143;45.456;11.064;2024-03-17T13:38:16;20.48;53.52
68746;SHT31;73143;45.456;11.064;2024-03-17T13:40:52;20.49;53.55
68746;SHT31;73143;45.456;11.064;2024-03-17T13:43:34;20.49;54.02
68746;SHT31;73143;45.456;11.064;2024-03-17T13:46:10;20.49;53.96
68746;SHT31;73143;45.456;11.064;2024-03-17T13:48:45;20.45;53.94
68746;SHT31;73143;45.456;11.064;2024-03-17T13:51:25;20.39;54.12
68746;SHT31;73143;45.456;11.064;2024-03-17T13:54:03;20.35;54.35
68746;SHT31;73143;45.456;11.064;2024-03-17T13:56:40;20.29;53.99
68746;SHT31;73143;45.456;11.064;2024-03-17T13:59:19;20.23;54.27
68746;SHT31;73143;45.456;11.064;2024-03-17T14:01:56;20.19;54.21
68746;SHT31;73143;45.456;11.064;2024-03-17T14:04:32;20.17;54.31
68746;SHT31;73143;45.456;11.064;2024-03-17T14:07:09;20.11;54.35
68746;SHT31;73143;45.456;11.064;2024-03-17T14:09:44;20.03;54.76
68746;SHT31;73143;45.456;11.064;2024-03-17T14:12:23;19.95;55.04
68746;SHT31;73143;45.456;11.064;2024-03-17T14:15:03;19.92;54.36
68746;SHT31;73143;45.456;11.064;2024-03-17T14:17:51;19.89;54.19
68746;SHT31;73143;45.456;11.064;2024-03-17T14:20:39;19.86;54.45
68746;SHT31;73143;45.456;11.064;2024-03-17T14:23:25;19.82;54.35
68746;SHT31;73143;45.456;11.064;2024-03-17T14:26:06;19.80;54.39
68746;SHT31;73143;45.456;11.064;2024-03-17T14:28:46;19.75;54.58
68746;SHT31;73143;45.456;11.064;2024-03-17T14:31:35;19.71;54.57
68746;SHT31;73143;45.456;11.064;2024-03-17T14:34:25;19.65;54.50
68746;SHT31;73143;45.456;11.064;2024-03-17T14:37:05;19.62;54.43
68746;SHT31;73143;45.456;11.064;2024-03-17T14:39:47;19.59;54.53
68746;SHT31;73143;45.456;11.064;2024-03-17T14:42:26;19.58;54.65
68746;SHT31;73143;45.456;11.064;2024-03-17T14:45:07;19.57;54.97
68746;SHT31;73143;45.456;11.064;2024-03-17T14:47:46;19.56;55.19
68746;SHT31;73143;45.456;11.064;2024-03-17T14:50:23;19.55;55.13
68746;SHT31;73143;45.456;11.064;2024-03-17T14:53:00;19.55;54.82
68746;SHT31;73143;45.456;11.064;2024-03-17T14:55:39;19.53;54.68
68746;SHT31;73143;45.456;11.064;2024-03-17T14:58:25;19.51;54.71
68746;SHT31;73143;45.456;11.064;2024-03-17T15:01:10;19.49;54.71
68746;SHT31;73143;45.456;11.064;2024-03-17T15:03:46;19.45;54.75
68746;SHT31;73143;45.456;11.064;2024-03-17T15:06:22;19.44;54.97
68746;SHT31;73143;45.456;11.064;2024-03-17T15:08:59;19.42;55.08
68746;SHT31;73143;45.456;11.064;2024-03-17T15:11:37;19.41;55.07
68746;SHT31;73143;45.456;11.064;2024-03-17T15:14:12;19.41;55.24
68746;SHT31;73143;45.456;11.064;2024-03-17T15:16:48;19.39;55.33
68746;SHT31;73143;45.456;11.064;2024-03-17T15:19:24;19.39;55.37
68746;SHT31;73143;45.456;11.064;2024-03-17T15:22:04;19.39;55.19
68746;SHT31;73143;45.456;11.064;2024-03-17T15:24:39;19.41;55.19
68746;SHT31;73143;45.456;11.064;2024-03-17T15:27:17;19.42;55.18
68746;SHT31;73143;45.456;11.064;2024-03-17T15:29:53;19.45;55.41
68746;SHT31;73143;45.456;11.064;2024-03-17T15:32:29;19.49;55.62
68746;SHT31;73143;45.456;11.064;2024-03-17T15:35:09;19.50;55.66
68746;SHT31;73143;45.456;11.064;2024-03-17T15:37:44;19.50;55.40
68746;SHT31;73143;45.456;11.064;2024-03-17T15:40:20;19.48;55.30
68746;SHT31;73143;45.456;11.064;2024-03-17T15:42:55;19.48;55.52
68746;SHT31;73143;45.456;11.064;2024-03-17T15:45:32;19.46;55.61
68746;SHT31;73143;45.456;11.064;2024-03-17T15:48:13;19.46;55.76
68746;SHT31;73143;45.456;11.064;2024-03-17T15:50:55;19.45;55.55
68746;SHT31;73143;45.456;11.064;2024-03-17T15:53:32;19.43;55.46
68746;SHT31;73143;45.456;11.064;2024-03-17T15:56:09;19.42;55.34
68746;SHT31;73143;45.456;11.064;2024-03-17T15:58:47;19.37;55.18
68746;SHT31;73143;45.456;11.064;2024-03-17T16:01:23;19.33;55.34
68746;SHT31;73143;45.456;11.064;2024-03-17T16:03:59;19.32;55.49
68746;SHT31;73143;45.456;11.064;2024-03-17T16:06:35;19.31;55.68
68746;SHT31;73143;45.456;11.064;2024-03-17T16:09:12;19.33;55.89
68746;SHT31;73143;45.456;11.064;2024-03-17T16:11:49;19.33;55.89
68746;SHT31;73143;45.456;11.064;2024-03-17T16:14:25;19.34;56.03
68746;SHT31;73143;45.456;11.064;2024-03-17T16:17:06;19.35;56.12
68746;SHT31;73143;45.456;11.064;2024-03-17T16:19:45;19.36;56.18
68746;SHT31;73143;45.456;11.064;2024-03-17T16:22:21;19.36;56.26
68746;SHT31;73143;45.456;11.064;2024-03-17T16:24:58;19.35;56.16
68746;SHT31;73143;45.456;11.064;2024-03-17T16:27:38;19.32;56.40